sensor_id;sensor_type;location;lat;lon;timestamp;P1;durP1;ratioP1;P2;durP2;ratioP2
11328;SDS011;5719;42.714;23.732;2023-04-29T00:01:24;17.77;;;8.55;;
11328;SDS011;5719;42.714;23.732;2023-04-29T00:03:51;14.73;;;7.78;;
11328;SDS011;5719;42.714;23.732;2023-04-29T00:06:18;14.38;;;6.30;;
11328;SDS011;5719;42.714;23.732;2023-04-29T00:08:45;16.02;;;6.47;;
11328;SDS011;5719;42.714;23.732;2023-04-29T00:11:13;17.63;;;6.90;;
11328;SDS011;5719;42.714;23.732;2023-04-29T00:13:40;14.27;;;7.18;;
11328;SDS011;5719;42.714;23.732;2023-04-29T00:16:07;13.90;;;6.85;;
11328;SDS011;5719;42.714;23.732;2023-04-29T00:18:35;13.40;;;6.13;;
11328;SDS011;5719;42.714;23.732;2023-04-29T00:21:02;11.95;;;6.40;;
11328;SDS011;5719;42.714;23.732;2023-04-29T00:23:31;16.23;;;6.50;;
11328;SDS011;5719;42.714;23.732;2023-04-29T00:25:58;20.75;;;6.35;;
11328;SDS011;5719;42.714;23.732;2023-04-29T00:28:26;13.52;;;5.68;;
11328;SDS011;5719;42.714;23.732;2023-04-29T00:30:53;21.95;;;6.75;;
11328;SDS011;5719;42.714;23.732;2023-04-29T00:33:20;22.05;;;7.30;;
11328;SDS011;5719;42.714;23.732;2023-04-29T00:35:47;14.75;;;6.80;;
11328;SDS011;5719;42.714;23.732;2023-04-29T00:38:14;14.88;;;7.05;;
11328;SDS011;5719;42.714;23.732;2023-04-29T00:40:41;21.60;;;8.05;;
11328;SDS011;5719;42.714;23.732;2023-04-29T00:43:08;23.25;;;8.43;;
11328;SDS011;5719;42.714;23.732;2023-04-29T00:45:37;22.45;;;8.32;;
11328;SDS011;5719;42.714;23.732;2023-04-29T00:48:04;30.52;;;10.70;;
11328;SDS011;5719;42.714;23.732;2023-04-29T00:50:31;21.70;;;8.70;;
11328;SDS011;5719;42.714;23.732;2023-04-29T00:52:59;16.38;;;7.05;;
11328;SDS011;5719;42.714;23.732;2023-04-29T00:55:26;14.38;;;5.43;;
11328;SDS011;5719;42.714;23.732;2023-04-29T00:57:54;45.72;;;15.40;;
11328;SDS011;5719;42.714;23.732;2023-04-29T01:00:21;45.53;;;15.88;;
11328;SDS011;5719;42.714;23.732;2023-04-29T01:02:50;46.10;;;15.18;;
11328;SDS011;5719;42.714;23.732;2023-04-29T01:05:18;55.88;;;19.30;;
11328;SDS011;5719;42.714;23.732;2023-04-29T01:07:47;49.10;;;20.35;;
11328;SDS011;5719;42.714;23.732;2023-04-29T01:10:25;50.42;;;21.48;;
11328;SDS011;5719;42.714;23.732;2023-04-29T01:12:57;50.38;;;20.40;;
11328;SDS011;5719;42.714;23.732;2023-04-29T01:15:31;43.53;;;19.10;;
11328;SDS011;5719;42.714;23.732;2023-04-29T01:18:05;47.92;;;18.85;;
11328;SDS011;5719;42.714;23.732;2023-04-29T01:20:37;39.35;;;17.80;;
11328;SDS011;5719;42.714;23.732;2023-04-29T01:23:06;46.25;;;17.92;;
11328;SDS011;5719;42.714;23.732;2023-04-29T01:25:34;34.83;;;15.65;;
11328;SDS011;5719;42.714;23.732;2023-04-29T01:28:04;39.38;;;13.90;;
11328;SDS011;5719;42.714;23.732;2023-04-29T01:30:38;32.67;;;13.52;;
11328;SDS011;5719;42.714;23.732;2023-04-29T01:33:13;27.27;;;12.30;;
11328;SDS011;5719;42.714;23.732;2023-04-29T01:35:51;28.60;;;11.68;;
11328;SDS011;5719;42.714;23.732;2023-04-29T01:38:31;25.63;;;11.35;;
11328;SDS011;5719;42.714;23.732;2023-04-29T01:41:11;23.65;;;10.43;;
11328;SDS011;5719;42.714;23.732;2023-04-29T01:43:41;23.42;;;10.00;;
11328;SDS011;5719;42.714;23.732;2023-04-29T01:46:08;25.25;;;9.90;;
11328;SDS011;5719;42.714;23.732;2023-04-29T01:48:36;23.52;;;9.60;;
11328;SDS011;5719;42.714;23.732;2023-04-29T01:51:04;18.15;;;9.48;;
11328;SDS011;5719;42.714;23.732;2023-04-29T01:53:31;18.60;;;8.77;;
11328;SDS011;5719;42.714;23.732;2023-04-29T01:55:58;15.65;;;7.32;;
11328;SDS011;5719;42.714;23.732;2023-04-29T01:58:26;16.67;;;7.47;;
11328;SDS011;5719;42.714;23.732;2023-04-29T02:00:53;22.10;;;9.40;;
11328;SDS011;5719;42.714;23.732;2023-04-29T02:03:21;15.43;;;7.38;;
11328;SDS011;5719;42.714;23.732;2023-04-29T02:05:48;15.18;;;8.35;;
11328;SDS011;5719;42.714;23.732;2023-04-29T02:08:15;11.57;;;6.65;;
11328;SDS011;5719;42.714;23.732;2023-04-29T02:10:50;16.00;;;6.72;;
11328;SDS011;5719;42.714;23.732;2023-04-29T02:13:18;17.02;;;6.65;;
11328;SDS011;5719;42.714;23.732;2023-04-29T02:15:48;16.08;;;6.75;;
11328;SDS011;5719;42.714;23.732;2023-04-29T02:18:15;17.52;;;6.63;;
11328;SDS011;5719;42.714;23.732;2023-04-29T02:20:42;14.07;;;6.75;;
11328;SDS011;5719;42.714;23.732;2023-04-29T02:23:09;10.25;;;6.20;;
11328;SDS011;5719;42.714;23.732;2023-04-29T02:25:36;16.85;;;7.18;;
11328;SDS011;5719;42.714;23.732;2023-04-29T02:28:04;14.85;;;7.00;;
11328;SDS011;5719;42.714;23.732;2023-04-29T02:30:31;22.17;;;7.13;;
11328;SDS011;5719;42.714;23.732;2023-04-29T02:32:59;19.35;;;8.10;;
11328;SDS011;5719;42.714;23.732;2023-04-29T02:35:26;16.50;;;6.97;;
11328;SDS011;5719;42.714;23.732;2023-04-29T02:37:53;15.77;;;6.95;;
11328;SDS011;5719;42.714;23.732;2023-04-29T02:40:20;20.55;;;7.40;;
11328;SDS011;5719;42.714;23.732;2023-04-29T02:42:46;13.77;;;6.45;;
11328;SDS011;5719;42.714;23.732;2023-04-29T02:45:13;17.83;;;7.53;;
11328;SDS011;5719;42.714;23.732;2023-04-29T02:47:41;13.68;;;7.05;;
11328;SDS011;5719;42.714;23.732;2023-04-29T02:50:10;12.93;;;5.63;;
11328;SDS011;5719;42.714;23.732;2023-04-29T02:52:36;14.52;;;7.03;;
11328;SDS011;5719;42.714;23.732;2023-04-29T02:55:06;12.13;;;6.32;;
11328;SDS011;5719;42.714;23.732;2023-04-29T02:57:33;13.00;;;6.55;;
11328;SDS011;5719;42.714;23.732;2023-04-29T03:00:00;17.38;;;6.90;;
11328;SDS011;5719;42.714;23.732;2023-04-29T03:02:28;11.55;;;6.53;;
11328;SDS011;5719;42.714;23.732;2023-04-29T03:04:55;15.65;;;7.70;;
11328;SDS011;5719;42.714;23.732;2023-04-29T03:07:23;13.18;;;7.25;;
11328;SDS011;5719;42.714;23.732;2023-04-29T03:09:50;14.57;;;6.82;;
11328;SDS011;5719;42.714;23.732;2023-04-29T03:12:17;17.85;;;8.20;;
11328;SDS011;5719;42.714;23.732;2023-04-29T03:14:44;23.75;;;9.50;;
11328;SDS011;5719;42.714;23.732;2023-04-29T03:17:11;25.77;;;10.35;;
11328;SDS011;5719;42.714;23.732;2023-04-29T03:19:38;15.02;;;8.70;;
11328;SDS011;5719;42.714;23.732;2023-04-29T03:22:05;19.35;;;8.57;;
11328;SDS011;5719;42.714;23.732;2023-04-29T03:24:37;17.50;;;8.63;;
11328;SDS011;5719;42.714;23.732;2023-04-29T03:27:04;26.60;;;9.60;;
11328;SDS011;5719;42.714;23.732;2023-04-29T03:29:31;26.85;;;9.55;;
11328;SDS011;5719;42.714;23.732;2023-04-29T03:31:57;25.15;;;9.73;;
11328;SDS011;5719;42.714;23.732;2023-04-29T03:34:24;18.15;;;8.55;;
11328;SDS011;5719;42.714;23.732;2023-04-29T03:36:51;18.73;;;8.77;;
11328;SDS011;5719;42.714;23.732;2023-04-29T03:39:18;20.35;;;8.25;;
11328;SDS011;5719;42.714;23.732;2023-04-29T03:41:47;20.75;;;9.38;;
11328;SDS011;5719;42.714;23.732;2023-04-29T03:44:14;19.35;;;8.52;;
11328;SDS011;5719;42.714;23.732;2023-04-29T03:46:41;21.20;;;7.70;;
11328;SDS011;5719;42.714;23.732;2023-04-29T03:49:07;19.05;;;8.05;;
11328;SDS011;5719;42.714;23.732;2023-04-29T03:51:34;20.65;;;8.45;;
11328;SDS011;5719;42.714;23.732;2023-04-29T03:54:01;18.60;;;9.65;;
11328;SDS011;5719;42.714;23.732;2023-04-29T03:56:28;23.70;;;10.88;;
11328;SDS011;5719;42.714;23.732;2023-04-29T03:58:56;16.85;;;8.85;;
11328;SDS011;5719;42.714;23.732;2023-04-29T04:01:23;26.17;;;10.10;;
11328;SDS011;5719;42.714;23.732;2023-04-29T04:03:50;26.95;;;10.65;;
11328;SDS011;5719;42.714;23.732;2023-04-29T04:06:17;18.42;;;8.98;;
11328;SDS011;5719;42.714;23.732;2023-04-29T04:08:44;22.42;;;9.10;;
11328;SDS011;5719;42.714;23.732;2023-04-29T04:11:11;20.35;;;9.23;;
11328;SDS011;5719;42.714;23.732;2023-04-29T04:13:39;22.42;;;8.57;;
11328;SDS011;5719;42.714;23.732;2023-04-29T04:16:08;20.48;;;8.35;;
11328;SDS011;5719;42.714;23.732;2023-04-29T04:18:36;22.33;;;8.70;;
11328;SDS011;5719;42.714;23.732;2023-04-29T04:21:06;18.98;;;8.77;;
11328;SDS011;5719;42.714;23.732;2023-04-29T04:23:33;17.20;;;8.32;;
11328;SDS011;5719;42.714;23.732;2023-04-29T04:26:00;18.50;;;7.80;;
11328;SDS011;5719;42.714;23.732;2023-04-29T04:28:27;15.27;;;7.93;;
11328;SDS011;5719;42.714;23.732;2023-04-29T04:30:54;15.68;;;7.63;;
11328;SDS011;5719;42.714;23.732;2023-04-29T04:33:23;15.48;;;7.25;;
11328;SDS011;5719;42.714;23.732;2023-04-29T04:35:50;13.57;;;8.23;;
11328;SDS011;5719;42.714;23.732;2023-04-29T04:38:17;21.30;;;8.85;;
11328;SDS011;5719;42.714;23.732;2023-04-29T04:40:44;16.40;;;8.30;;
11328;SDS011;5719;42.714;23.732;2023-04-29T04:43:11;14.07;;;7.88;;
11328;SDS011;5719;42.714;23.732;2023-04-29T04:45:37;15.73;;;7.75;;
11328;SDS011;5719;42.714;23.732;2023-04-29T04:48:05;17.55;;;7.60;;
11328;SDS011;5719;42.714;23.732;2023-04-29T04:50:33;32.35;;;15.48;;
11328;SDS011;5719;42.714;23.732;2023-04-29T04:53:00;26.63;;;10.65;;
11328;SDS011;5719;42.714;23.732;2023-04-29T04:55:27;20.27;;;9.00;;
11328;SDS011;5719;42.714;23.732;2023-04-29T04:57:55;15.48;;;8.90;;
11328;SDS011;5719;42.714;23.732;2023-04-29T05:00:22;30.75;;;16.45;;
11328;SDS011;5719;42.714;23.732;2023-04-29T05:02:49;25.08;;;10.85;;
11328;SDS011;5719;42.714;23.732;2023-04-29T05:05:16;21.65;;;10.20;;
11328;SDS011;5719;42.714;23.732;2023-04-29T05:07:45;27.40;;;10.98;;
11328;SDS011;5719;42.714;23.732;2023-04-29T05:10:12;22.05;;;9.85;;
11328;SDS011;5719;42.714;23.732;2023-04-29T05:12:39;23.08;;;10.50;;
11328;SDS011;5719;42.714;23.732;2023-04-29T05:15:06;19.17;;;10.35;;
11328;SDS011;5719;42.714;23.732;2023-04-29T05:17:34;21.05;;;10.02;;
11328;SDS011;5719;42.714;23.732;2023-04-29T05:20:00;16.55;;;8.93;;
11328;SDS011;5719;42.714;23.732;2023-04-29T05:22:28;16.48;;;8.10;;
11328;SDS011;5719;42.714;23.732;2023-04-29T05:24:56;17.52;;;8.40;;
11328;SDS011;5719;42.714;23.732;2023-04-29T05:27:27;20.50;;;8.77;;
11328;SDS011;5719;42.714;23.732;2023-04-29T05:29:54;12.38;;;7.30;;
11328;SDS011;5719;42.714;23.732;2023-04-29T05:32:21;11.88;;;6.68;;
11328;SDS011;5719;42.714;23.732;2023-04-29T05:34:48;14.63;;;6.43;;
11328;SDS011;5719;42.714;23.732;2023-04-29T05:37:15;8.70;;;6.10;;
11328;SDS011;5719;42.714;23.732;2023-04-29T05:39:42;7.50;;;4.75;;
11328;SDS011;5719;42.714;23.732;2023-04-29T05:42:10;6.13;;;4.57;;
11328;SDS011;5719;42.714;23.732;2023-04-29T05:44:37;7.05;;;4.47;;
11328;SDS011;5719;42.714;23.732;2023-04-29T05:47:05;10.80;;;4.60;;
11328;SDS011;5719;42.714;23.732;2023-04-29T05:49:32;5.40;;;3.95;;
11328;SDS011;5719;42.714;23.732;2023-04-29T05:51:59;7.28;;;4.13;;
11328;SDS011;5719;42.714;23.732;2023-04-29T05:54:30;5.22;;;3.78;;
11328;SDS011;5719;42.714;23.732;2023-04-29T05:56:57;6.30;;;4.28;;
11328;SDS011;5719;42.714;23.732;2023-04-29T05:59:28;5.53;;;3.65;;
11328;SDS011;5719;42.714;23.732;2023-04-29T06:01:55;6.15;;;3.30;;
11328;SDS011;5719;42.714;23.732;2023-04-29T06:04:22;6.13;;;3.22;;
11328;SDS011;5719;42.714;23.732;2023-04-29T06:06:49;5.05;;;3.10;;
11328;SDS011;5719;42.714;23.732;2023-04-29T06:09:16;5.75;;;3.25;;
11328;SDS011;5719;42.714;23.732;2023-04-29T06:11:43;7.53;;;2.88;;
11328;SDS011;5719;42.714;23.732;2023-04-29T06:14:12;8.88;;;3.20;;
11328;SDS011;5719;42.714;23.732;2023-04-29T06:16:40;5.30;;;3.13;;
11328;SDS011;5719;42.714;23.732;2023-04-29T06:19:07;6.38;;;2.88;;
11328;SDS011;5719;42.714;23.732;2023-04-29T06:21:34;7.57;;;2.80;;
11328;SDS011;5719;42.714;23.732;2023-04-29T06:24:01;6.65;;;2.65;;
11328;SDS011;5719;42.714;23.732;2023-04-29T06:26:28;3.95;;;2.70;;
11328;SDS011;5719;42.714;23.732;2023-04-29T06:28:54;4.25;;;2.72;;
11328;SDS011;5719;42.714;23.732;2023-04-29T06:31:21;5.90;;;2.63;;
11328;SDS011;5719;42.714;23.732;2023-04-29T06:33:50;7.57;;;2.80;;
11328;SDS011;5719;42.714;23.732;2023-04-29T06:36:17;6.25;;;2.28;;
11328;SDS011;5719;42.714;23.732;2023-04-29T06:38:43;4.90;;;2.55;;
11328;SDS011;5719;42.714;23.732;2023-04-29T06:41:10;3.35;;;2.20;;
11328;SDS011;5719;42.714;23.732;2023-04-29T06:43:37;4.57;;;2.35;;
11328;SDS011;5719;42.714;23.732;2023-04-29T06:46:05;7.03;;;2.25;;
11328;SDS011;5719;42.714;23.732;2023-04-29T06:48:32;12.07;;;2.42;;
11328;SDS011;5719;42.714;23.732;2023-04-29T06:51:00;6.57;;;2.08;;
11328;SDS011;5719;42.714;23.732;2023-04-29T06:53:28;4.38;;;2.33;;
11328;SDS011;5719;42.714;23.732;2023-04-29T06:55:54;11.10;;;2.40;;
11328;SDS011;5719;42.714;23.732;2023-04-29T06:58:21;6.70;;;2.22;;
11328;SDS011;5719;42.714;23.732;2023-04-29T07:00:49;2.58;;;1.80;;
11328;SDS011;5719;42.714;23.732;2023-04-29T07:03:17;4.22;;;2.13;;
11328;SDS011;5719;42.714;23.732;2023-04-29T07:05:44;4.03;;;2.20;;
11328;SDS011;5719;42.714;23.732;2023-04-29T07:08:12;2.97;;;1.95;;
11328;SDS011;5719;42.714;23.732;2023-04-29T07:10:40;5.25;;;2.40;;
11328;SDS011;5719;42.714;23.732;2023-04-29T07:13:07;2.60;;;1.92;;
11328;SDS011;5719;42.714;23.732;2023-04-29T07:15:34;2.22;;;1.92;;
11328;SDS011;5719;42.714;23.732;2023-04-29T07:18:02;6.32;;;2.00;;
11328;SDS011;5719;42.714;23.732;2023-04-29T07:20:29;6.28;;;2.30;;
11328;SDS011;5719;42.714;23.732;2023-04-29T07:22:56;3.38;;;2.00;;
11328;SDS011;5719;42.714;23.732;2023-04-29T07:25:26;7.63;;;2.22;;
11328;SDS011;5719;42.714;23.732;2023-04-29T07:27:53;4.00;;;2.20;;
11328;SDS011;5719;42.714;23.732;2023-04-29T07:30:20;6.40;;;2.40;;
11328;SDS011;5719;42.714;23.732;2023-04-29T07:32:49;2.85;;;1.75;;
11328;SDS011;5719;42.714;23.732;2023-04-29T07:35:16;8.65;;;2.30;;
11328;SDS011;5719;42.714;23.732;2023-04-29T07:37:43;3.03;;;1.80;;
11328;SDS011;5719;42.714;23.732;2023-04-29T07:40:10;5.00;;;2.30;;
11328;SDS011;5719;42.714;23.732;2023-04-29T07:42:38;4.55;;;1.90;;
11328;SDS011;5719;42.714;23.732;2023-04-29T07:45:06;3.70;;;2.05;;
11328;SDS011;5719;42.714;23.732;2023-04-29T07:47:33;2.60;;;1.73;;
11328;SDS011;5719;42.714;23.732;2023-04-29T07:50:00;5.68;;;1.70;;
11328;SDS011;5719;42.714;23.732;2023-04-29T07:52:27;3.53;;;1.80;;
11328;SDS011;5719;42.714;23.732;2023-04-29T07:54:54;2.72;;;1.73;;
11328;SDS011;5719;42.714;23.732;2023-04-29T07:57:21;5.45;;;1.70;;
11328;SDS011;5719;42.714;23.732;2023-04-29T07:59:51;5.88;;;1.70;;
11328;SDS011;5719;42.714;23.732;2023-04-29T08:02:18;2.40;;;1.73;;
11328;SDS011;5719;42.714;23.732;2023-04-29T08:04:45;6.85;;;2.05;;
11328;SDS011;5719;42.714;23.732;2023-04-29T08:07:12;4.50;;;1.90;;
11328;SDS011;5719;42.714;23.732;2023-04-29T08:09:39;3.67;;;1.90;;
11328;SDS011;5719;42.714;23.732;2023-04-29T08:12:06;5.18;;;1.92;;
11328;SDS011;5719;42.714;23.732;2023-04-29T08:14:33;7.38;;;2.20;;
11328;SDS011;5719;42.714;23.732;2023-04-29T08:17:02;3.13;;;2.10;;
11328;SDS011;5719;42.714;23.732;2023-04-29T08:19:29;4.25;;;1.60;;
11328;SDS011;5719;42.714;23.732;2023-04-29T08:21:56;5.07;;;2.00;;
11328;SDS011;5719;42.714;23.732;2023-04-29T08:24:25;5.55;;;1.80;;
11328;SDS011;5719;42.714;23.732;2023-04-29T08:26:53;2.78;;;1.60;;
11328;SDS011;5719;42.714;23.732;2023-04-29T08:29:20;3.75;;;2.03;;
11328;SDS011;5719;42.714;23.732;2023-04-29T08:31:47;7.78;;;1.95;;
11328;SDS011;5719;42.714;23.732;2023-04-29T08:34:15;5.18;;;1.67;;
11328;SDS011;5719;42.714;23.732;2023-04-29T08:36:42;4.03;;;1.70;;
11328;SDS011;5719;42.714;23.732;2023-04-29T08:39:09;2.95;;;1.90;;
11328;SDS011;5719;42.714;23.732;2023-04-29T08:41:36;2.70;;;1.52;;
11328;SDS011;5719;42.714;23.732;2023-04-29T08:44:03;2.83;;;1.60;;
11328;SDS011;5719;42.714;23.732;2023-04-29T08:46:31;3.40;;;1.70;;
11328;SDS011;5719;42.714;23.732;2023-04-29T08:48:58;4.20;;;1.45;;
11328;SDS011;5719;42.714;23.732;2023-04-29T08:51:29;5.63;;;1.95;;
11328;SDS011;5719;42.714;23.732;2023-04-29T08:53:57;5.53;;;1.83;;
11328;SDS011;5719;42.714;23.732;2023-04-29T08:56:24;9.80;;;1.80;;
11328;SDS011;5719;42.714;23.732;2023-04-29T08:58:51;3.70;;;1.40;;
11328;SDS011;5719;42.714;23.732;2023-04-29T09:01:20;2.50;;;1.55;;
11328;SDS011;5719;42.714;23.732;2023-04-29T09:03:50;5.68;;;1.40;;
11328;SDS011;5719;42.714;23.732;2023-04-29T09:06:22;1.50;;;1.40;;
11328;SDS011;5719;42.714;23.732;2023-04-29T09:08:50;2.40;;;1.40;;
11328;SDS011;5719;42.714;23.732;2023-04-29T09:11:17;5.80;;;1.50;;
11328;SDS011;5719;42.714;23.732;2023-04-29T09:13:45;2.60;;;1.38;;
11328;SDS011;5719;42.714;23.732;2023-04-29T09:16:12;3.90;;;1.40;;
11328;SDS011;5719;42.714;23.732;2023-04-29T09:18:43;2.17;;;1.40;;
11328;SDS011;5719;42.714;23.732;2023-04-29T09:21:12;7.20;;;1.60;;
11328;SDS011;5719;42.714;23.732;2023-04-29T09:23:39;4.82;;;1.60;;
11328;SDS011;5719;42.714;23.732;2023-04-29T09:26:08;2.63;;;1.45;;
11328;SDS011;5719;42.714;23.732;2023-04-29T09:28:35;4.55;;;1.40;;
11328;SDS011;5719;42.714;23.732;2023-04-29T09:31:03;1.63;;;1.20;;
11328;SDS011;5719;42.714;23.732;2023-04-29T09:33:46;3.05;;;1.63;;
11328;SDS011;5719;42.714;23.732;2023-04-29T09:36:17;3.25;;;1.33;;
11328;SDS011;5719;42.714;23.732;2023-04-29T09:39:01;2.05;;;1.23;;
11328;SDS011;5719;42.714;23.732;2023-04-29T09:41:31;2.85;;;1.25;;
11328;SDS011;5719;42.714;23.732;2023-04-29T09:44:01;4.40;;;1.67;;
11328;SDS011;5719;42.714;23.732;2023-04-29T09:46:30;3.22;;;1.20;;
11328;SDS011;5719;42.714;23.732;2023-04-29T09:48:58;3.92;;;1.33;;
11328;SDS011;5719;42.714;23.732;2023-04-29T09:51:25;2.65;;;1.58;;
11328;SDS011;5719;42.714;23.732;2023-04-29T09:53:52;1.73;;;1.20;;
11328;SDS011;5719;42.714;23.732;2023-04-29T09:56:18;6.78;;;1.50;;
11328;SDS011;5719;42.714;23.732;2023-04-29T09:58:48;3.35;;;1.60;;
11328;SDS011;5719;42.714;23.732;2023-04-29T10:01:15;3.15;;;1.40;;
11328;SDS011;5719;42.714;23.732;2023-04-29T10:03:44;3.30;;;1.30;;
11328;SDS011;5719;42.714;23.732;2023-04-29T10:06:15;3.03;;;1.58;;
11328;SDS011;5719;42.714;23.732;2023-04-29T10:08:43;4.43;;;1.90;;
11328;SDS011;5719;42.714;23.732;2023-04-29T10:11:12;1.75;;;1.30;;
11328;SDS011;5719;42.714;23.732;2023-04-29T10:13:41;2.63;;;1.50;;
11328;SDS011;5719;42.714;23.732;2023-04-29T10:16:14;3.22;;;1.85;;
11328;SDS011;5719;42.714;23.732;2023-04-29T10:18:51;2.65;;;1.20;;
11328;SDS011;5719;42.714;23.732;2023-04-29T10:21:20;3.20;;;1.20;;
11328;SDS011;5719;42.714;23.732;2023-04-29T10:23:53;2.95;;;1.45;;
11328;SDS011;5719;42.714;23.732;2023-04-29T10:26:21;3.90;;;1.17;;
11328;SDS011;5719;42.714;23.732;2023-04-29T10:28:52;1.52;;;1.20;;
11328;SDS011;5719;42.714;23.732;2023-04-29T10:31:22;3.88;;;1.52;;
11328;SDS011;5719;42.714;23.732;2023-04-29T10:33:53;4.25;;;1.27;;
11328;SDS011;5719;42.714;23.732;2023-04-29T10:36:22;3.10;;;1.15;;
11328;SDS011;5719;42.714;23.732;2023-04-29T10:38:53;2.53;;;1.17;;
11328;SDS011;5719;42.714;23.732;2023-04-29T10:41:24;3.10;;;1.13;;
11328;SDS011;5719;42.714;23.732;2023-04-29T10:43:53;3.20;;;1.30;;
11328;SDS011;5719;42.714;23.732;2023-04-29T10:46:20;1.25;;;1.10;;
11328;SDS011;5719;42.714;23.732;2023-04-29T10:48:55;2.95;;;1.27;;
11328;SDS011;5719;42.714;23.732;2023-04-29T10:51:29;2.97;;;1.40;;
11328;SDS011;5719;42.714;23.732;2023-04-29T10:53:58;5.80;;;1.38;;
11328;SDS011;5719;42.714;23.732;2023-04-29T10:56:39;10.05;;;1.60;;
11328;SDS011;5719;42.714;23.732;2023-04-29T10:59:10;2.50;;;1.40;;
11328;SDS011;5719;42.714;23.732;2023-04-29T11:01:43;2.03;;;1.20;;
11328;SDS011;5719;42.714;23.732;2023-04-29T11:04:15;2.15;;;1.17;;
11328;SDS011;5719;42.714;23.732;2023-04-29T11:06:44;2.70;;;1.23;;
11328;SDS011;5719;42.714;23.732;2023-04-29T11:09:13;4.78;;;1.58;;
11328;SDS011;5719;42.714;23.732;2023-04-29T11:11:45;5.88;;;1.58;;
11328;SDS011;5719;42.714;23.732;2023-04-29T11:14:23;2.20;;;1.40;;
11328;SDS011;5719;42.714;23.732;2023-04-29T11:16:53;6.15;;;1.63;;
11328;SDS011;5719;42.714;23.732;2023-04-29T11:19:23;4.88;;;1.38;;
11328;SDS011;5719;42.714;23.732;2023-04-29T11:22:09;2.95;;;1.50;;
11328;SDS011;5719;42.714;23.732;2023-04-29T11:24:48;3.75;;;1.40;;
11328;SDS011;5719;42.714;23.732;2023-04-29T11:27:16;2.78;;;1.30;;
11328;SDS011;5719;42.714;23.732;2023-04-29T11:29:44;1.92;;;1.30;;
11328;SDS011;5719;42.714;23.732;2023-04-29T11:32:13;5.47;;;1.50;;
11328;SDS011;5719;42.714;23.732;2023-04-29T11:34:40;8.05;;;1.40;;
11328;SDS011;5719;42.714;23.732;2023-04-29T11:37:08;4.68;;;1.35;;
11328;SDS011;5719;42.714;23.732;2023-04-29T11:39:35;4.55;;;1.60;;
11328;SDS011;5719;42.714;23.732;2023-04-29T11:42:03;5.85;;;1.58;;
11328;SDS011;5719;42.714;23.732;2023-04-29T11:44:32;2.35;;;1.55;;
11328;SDS011;5719;42.714;23.732;2023-04-29T11:49:31;7.55;;;1.52;;
11328;SDS011;5719;42.714;23.732;2023-04-29T11:52:01;6.72;;;3.17;;
11328;SDS011;5719;42.714;23.732;2023-04-29T11:54:28;2.75;;;1.58;;
11328;SDS011;5719;42.714;23.732;2023-04-29T11:56:57;8.55;;;1.85;;
11328;SDS011;5719;42.714;23.732;2023-04-29T11:59:24;3.80;;;1.45;;
11328;SDS011;5719;42.714;23.732;2023-04-29T12:01:52;8.70;;;1.50;;
11328;SDS011;5719;42.714;23.732;2023-04-29T12:04:18;4.88;;;1.80;;
11328;SDS011;5719;42.714;23.732;2023-04-29T12:06:47;5.50;;;1.80;;
11328;SDS011;5719;42.714;23.732;2023-04-29T12:09:17;3.63;;;1.40;;
11328;SDS011;5719;42.714;23.732;2023-04-29T12:11:44;4.78;;;2.10;;
11328;SDS011;5719;42.714;23.732;2023-04-29T12:14:12;7.00;;;1.98;;
11328;SDS011;5719;42.714;23.732;2023-04-29T12:16:39;6.10;;;2.22;;
11328;SDS011;5719;42.714;23.732;2023-04-29T12:19:07;5.53;;;2.03;;
11328;SDS011;5719;42.714;23.732;2023-04-29T12:21:35;4.53;;;2.30;;
11328;SDS011;5719;42.714;23.732;2023-04-29T12:24:03;10.20;;;2.15;;
11328;SDS011;5719;42.714;23.732;2023-04-29T12:26:31;5.82;;;2.20;;
11328;SDS011;5719;42.714;23.732;2023-04-29T12:28:58;3.88;;;1.88;;
11328;SDS011;5719;42.714;23.732;2023-04-29T12:31:30;5.60;;;2.05;;
11328;SDS011;5719;42.714;23.732;2023-04-29T12:33:59;6.00;;;1.88;;
11328;SDS011;5719;42.714;23.732;2023-04-29T12:36:28;2.53;;;1.77;;
11328;SDS011;5719;42.714;23.732;2023-04-29T12:38:55;7.07;;;1.85;;
11328;SDS011;5719;42.714;23.732;2023-04-29T12:41:38;3.60;;;2.00;;
11328;SDS011;5719;42.714;23.732;2023-04-29T12:44:06;4.03;;;1.75;;
11328;SDS011;5719;42.714;23.732;2023-04-29T12:46:35;3.97;;;2.13;;
11328;SDS011;5719;42.714;23.732;2023-04-29T12:49:02;5.45;;;2.20;;
11328;SDS011;5719;42.714;23.732;2023-04-29T12:51:30;2.33;;;1.55;;
11328;SDS011;5719;42.714;23.732;2023-04-29T12:53:57;5.97;;;1.60;;
11328;SDS011;5719;42.714;23.732;2023-04-29T12:56:25;2.90;;;1.67;;
11328;SDS011;5719;42.714;23.732;2023-04-29T12:58:53;3.13;;;1.67;;
11328;SDS011;5719;42.714;23.732;2023-04-29T13:01:20;3.47;;;1.63;;
11328;SDS011;5719;42.714;23.732;2023-04-29T13:03:47;3.88;;;1.70;;
11328;SDS011;5719;42.714;23.732;2023-04-29T13:06:15;3.28;;;1.95;;
11328;SDS011;5719;42.714;23.732;2023-04-29T13:08:43;6.38;;;2.10;;
11328;SDS011;5719;42.714;23.732;2023-04-29T13:11:10;6.50;;;2.00;;
11328;SDS011;5719;42.714;23.732;2023-04-29T13:13:37;3.60;;;1.80;;
11328;SDS011;5719;42.714;23.732;2023-04-29T13:16:07;10.75;;;2.20;;
11328;SDS011;5719;42.714;23.732;2023-04-29T13:18:34;4.47;;;2.10;;
11328;SDS011;5719;42.714;23.732;2023-04-29T13:21:01;2.60;;;2.05;;
11328;SDS011;5719;42.714;23.732;2023-04-29T13:23:28;3.42;;;1.70;;
11328;SDS011;5719;42.714;23.732;2023-04-29T13:25:55;2.72;;;1.95;;
11328;SDS011;5719;42.714;23.732;2023-04-29T13:28:22;2.50;;;1.83;;
11328;SDS011;5719;42.714;23.732;2023-04-29T13:30:49;5.32;;;2.15;;
11328;SDS011;5719;42.714;23.732;2023-04-29T13:33:18;3.97;;;1.92;;
11328;SDS011;5719;42.714;23.732;2023-04-29T13:35:45;4.72;;;2.65;;
11328;SDS011;5719;42.714;23.732;2023-04-29T13:38:13;8.75;;;3.60;;
11328;SDS011;5719;42.714;23.732;2023-04-29T13:40:41;11.13;;;4.30;;
11328;SDS011;5719;42.714;23.732;2023-04-29T13:43:08;1.50;;;1.40;;
11328;SDS011;5719;42.714;23.732;2023-04-29T13:45:35;3.20;;;1.70;;
11328;SDS011;5719;42.714;23.732;2023-04-29T13:48:02;3.22;;;1.83;;
11328;SDS011;5719;42.714;23.732;2023-04-29T13:50:31;2.58;;;1.52;;
11328;SDS011;5719;42.714;23.732;2023-04-29T13:52:58;2.92;;;1.33;;
11328;SDS011;5719;42.714;23.732;2023-04-29T13:55:25;3.50;;;1.50;;
11328;SDS011;5719;42.714;23.732;2023-04-29T13:57:54;3.80;;;1.67;;
11328;SDS011;5719;42.714;23.732;2023-04-29T14:00:22;6.32;;;1.50;;
11328;SDS011;5719;42.714;23.732;2023-04-29T14:02:49;4.93;;;1.60;;
11328;SDS011;5719;42.714;23.732;2023-04-29T14:05:16;7.55;;;1.63;;
11328;SDS011;5719;42.714;23.732;2023-04-29T14:07:45;3.42;;;1.50;;
11328;SDS011;5719;42.714;23.732;2023-04-29T14:10:12;2.22;;;1.38;;
11328;SDS011;5719;42.714;23.732;2023-04-29T14:12:39;3.05;;;1.90;;
11328;SDS011;5719;42.714;23.732;2023-04-29T14:15:06;10.68;;;1.85;;
11328;SDS011;5719;42.714;23.732;2023-04-29T14:17:33;4.97;;;1.70;;
11328;SDS011;5719;42.714;23.732;2023-04-29T14:20:00;2.58;;;1.40;;
11328;SDS011;5719;42.714;23.732;2023-04-29T14:22:28;4.95;;;1.60;;
11328;SDS011;5719;42.714;23.732;2023-04-29T14:24:56;3.95;;;1.70;;
11328;SDS011;5719;42.714;23.732;2023-04-29T14:27:23;2.15;;;1.45;;
11328;SDS011;5719;42.714;23.732;2023-04-29T14:29:50;3.45;;;1.73;;
11328;SDS011;5719;42.714;23.732;2023-04-29T14:32:17;2.55;;;1.65;;
11328;SDS011;5719;42.714;23.732;2023-04-29T14:34:44;2.88;;;1.63;;
11328;SDS011;5719;42.714;23.732;2023-04-29T14:37:11;1.38;;;1.27;;
11328;SDS011;5719;42.714;23.732;2023-04-29T14:39:38;3.35;;;2.17;;
11328;SDS011;5719;42.714;23.732;2023-04-29T14:42:07;6.13;;;1.38;;
11328;SDS011;5719;42.714;23.732;2023-04-29T14:44:33;4.18;;;1.77;;
11328;SDS011;5719;42.714;23.732;2023-04-29T14:47:00;5.72;;;1.60;;
11328;SDS011;5719;42.714;23.732;2023-04-29T14:49:29;2.08;;;1.52;;